createdAt,value
2022-07-28T00:00:51.922Z,99.90
2022-07-28T00:03:20.677Z,99.90
2022-07-28T00:05:49.944Z,99.90
2022-07-28T00:08:19.165Z,99.90
2022-07-28T00:10:49.306Z,99.90
2022-07-28T00:13:18.062Z,99.90
2022-07-28T00:15:46.860Z,99.90
2022-07-28T00:18:15.684Z,99.90
2022-07-28T00:20:44.592Z,99.90
2022-07-28T00:23:13.373Z,99.90
2022-07-28T00:25:42.050Z,99.90
2022-07-28T00:28:12.277Z,99.90
2022-07-28T00:30:41.084Z,99.90
2022-07-28T00:33:10.400Z,99.90
2022-07-28T00:35:39.242Z,99.90
2022-07-28T00:38:08.115Z,99.90
2022-07-28T00:40:57.876Z,99.90
2022-07-28T00:43:28.088Z,99.90
2022-07-28T00:45:56.874Z,99.90
2022-07-28T00:48:25.573Z,99.90
2022-07-28T00:50:54.659Z,99.90
2022-07-28T00:53:24.442Z,99.90
2022-07-28T00:56:03.481Z,99.90
2022-07-28T00:58:38.590Z,99.90
2022-07-28T01:01:07.959Z,99.90
2022-07-28T01:03:40.629Z,99.90
2022-07-28T01:06:17.860Z,99.90
2022-07-28T01:08:59.607Z,99.90
2022-07-28T01:11:41.617Z,99.90
2022-07-28T01:14:21.812Z,99.90
2022-07-28T01:16:55.897Z,99.90
2022-07-28T01:19:38.611Z,99.90
2022-07-28T01:22:11.065Z,99.90
2022-07-28T01:24:56.566Z,99.90
2022-07-28T01:27:37.786Z,99.90
2022-07-28T01:30:12.561Z,99.90
2022-07-28T01:32:46.643Z,99.90
2022-07-28T01:35:21.355Z,99.90
2022-07-28T01:37:55.666Z,99.90
2022-07-28T01:40:27.012Z,99.90
2022-07-28T01:42:59.719Z,99.90
2022-07-28T01:45:29.294Z,99.90
2022-07-28T01:48:02.943Z,99.90
2022-07-28T01:50:33.029Z,99.90
2022-07-28T01:53:02.694Z,99.90
2022-07-28T01:55:33.064Z,99.90
2022-07-28T01:58:03.219Z,99.90
2022-07-28T02:00:33.608Z,99.90
2022-07-28T02:03:07.656Z,99.90
2022-07-28T02:05:38.185Z,99.90
2022-07-28T02:08:08.649Z,99.90
2022-07-28T02:10:38.798Z,99.90
2022-07-28T02:13:08.766Z,99.90
2022-07-28T02:15:39.437Z,99.90
2022-07-28T02:18:11.319Z,99.90
2022-07-28T02:20:42.411Z,99.90
2022-07-28T02:23:14.990Z,99.90
2022-07-28T02:25:44.097Z,99.90
2022-07-28T02:28:13.680Z,99.90
2022-07-28T02:30:52.002Z,99.90
2022-07-28T02:33:58.347Z,99.90
2022-07-28T02:36:22.350Z,99.90
2022-07-28T02:38:56.022Z,99.90
2022-07-28T02:41:28.740Z,99.90
2022-07-28T02:44:02.135Z,99.90
2022-07-28T02:46:44.562Z,99.90
2022-07-28T02:49:19.559Z,99.90
2022-07-28T02:51:49.949Z,99.90
2022-07-28T02:54:21.239Z,99.90
2022-07-28T02:56:53.824Z,99.90
2022-07-28T02:59:23.590Z,99.90
2022-07-28T03:01:53.649Z,99.90
2022-07-28T03:04:39.684Z,99.90
2022-07-28T03:07:08.816Z,99.90
2022-07-28T03:09:41.946Z,99.90
2022-07-28T03:12:11.185Z,99.90
2022-07-28T03:14:40.360Z,99.90
2022-07-28T03:17:09.561Z,99.90
2022-07-28T03:19:39.964Z,99.90
2022-07-28T03:22:10.449Z,99.90
2022-07-28T03:24:41.667Z,99.90
2022-07-28T03:27:18.083Z,99.90
2022-07-28T03:29:51.204Z,99.90
2022-07-28T03:32:22.103Z,99.90
2022-07-28T03:34:52.919Z,99.90
2022-07-28T03:37:27.287Z,99.90
2022-07-28T03:39:59.150Z,99.90
2022-07-28T03:42:29.350Z,99.90
2022-07-28T03:44:58.665Z,99.90
2022-07-28T03:47:27.466Z,99.90
2022-07-28T03:49:57.871Z,99.90
2022-07-28T03:52:26.861Z,99.90
2022-07-28T03:54:55.607Z,99.90
2022-07-28T03:57:24.709Z,99.90
2022-07-28T03:59:53.398Z,99.90
2022-07-28T04:02:22.332Z,99.90
2022-07-28T04:04:51.523Z,99.90
2022-07-28T04:07:21.666Z,99.90
2022-07-28T04:09:50.327Z,99.90
2022-07-28T04:12:19.114Z,99.90
2022-07-28T04:14:47.879Z,99.90
2022-07-28T04:17:16.784Z,99.90
2022-07-28T04:19:45.392Z,99.90
2022-07-28T04:22:14.088Z,99.90
2022-07-28T04:24:44.308Z,99.90
2022-07-28T04:27:13.129Z,98.50
2022-07-28T04:29:41.743Z,96.20
2022-07-28T04:32:10.409Z,94.40
2022-07-28T04:34:39.031Z,92.90
2022-07-28T04:37:09.035Z,91.60
2022-07-28T04:39:37.658Z,90.50
2022-07-28T04:42:09.716Z,89.30
2022-07-28T04:44:42.619Z,88.00
2022-07-28T04:47:12.214Z,85.80
2022-07-28T04:49:40.941Z,87.10
2022-07-28T04:52:09.741Z,90.10
2022-07-28T04:54:38.686Z,92.10
2022-07-28T04:57:11.440Z,94.10
2022-07-28T04:59:41.765Z,96.20
2022-07-28T05:02:10.775Z,98.40
2022-07-28T05:04:39.982Z,99.90
2022-07-28T05:07:12.812Z,99.90
2022-07-28T05:09:42.035Z,99.90
2022-07-28T05:12:13.639Z,99.90
2022-07-28T05:14:42.565Z,99.90
2022-07-28T05:17:11.449Z,99.90
2022-07-28T05:19:42.338Z,99.90
2022-07-28T05:22:11.361Z,99.90
2022-07-28T05:24:40.317Z,99.90
2022-07-28T05:27:09.219Z,99.90
2022-07-28T05:29:47.475Z,99.90
2022-07-28T05:32:18.158Z,99.90
2022-07-28T05:34:47.054Z,99.90
2022-07-28T05:37:15.868Z,99.90
2022-07-28T05:39:44.697Z,99.90
2022-07-28T05:42:13.566Z,99.90
2022-07-28T05:44:44.028Z,99.90
2022-07-28T05:47:12.889Z,99.90
2022-07-28T05:49:41.559Z,99.90
2022-07-28T05:52:10.194Z,99.90
2022-07-28T05:54:38.890Z,99.90
2022-07-28T05:57:07.545Z,99.90
2022-07-28T05:59:45.590Z,99.90
2022-07-28T06:02:14.400Z,99.90
2022-07-28T06:04:46.645Z,99.90
2022-07-28T06:07:18.543Z,99.90
2022-07-28T06:09:47.486Z,99.90
2022-07-28T06:12:16.258Z,99.90
2022-07-28T06:14:46.584Z,99.90
2022-07-28T06:17:16.366Z,99.90
2022-07-28T06:19:45.420Z,99.90
2022-07-28T06:22:15.875Z,99.90
2022-07-28T06:24:44.664Z,99.90
2022-07-28T06:27:13.449Z,99.90
2022-07-28T06:29:42.149Z,99.90
2022-07-28T06:32:12.532Z,99.90
2022-07-28T06:34:41.494Z,99.90
2022-07-28T06:37:10.310Z,99.90
2022-07-28T06:39:38.898Z,99.90
2022-07-28T06:42:08.035Z,99.90
2022-07-28T06:44:57.416Z,99.90
2022-07-28T06:47:27.188Z,99.90
2022-07-28T06:49:56.046Z,99.60
2022-07-28T06:52:24.829Z,99.50
2022-07-28T06:54:57.431Z,99.50
2022-07-28T06:57:33.244Z,98.00
2022-07-28T07:00:04.457Z,98.20
2022-07-28T07:02:35.704Z,98.60
2022-07-28T07:05:04.384Z,98.30
2022-07-28T07:07:33.270Z,98.60
2022-07-28T07:10:01.854Z,98.50
2022-07-28T07:12:30.651Z,99.00
2022-07-28T07:14:59.693Z,99.80
2022-07-28T07:17:28.554Z,98.30
2022-07-28T07:19:58.738Z,98.10
2022-07-28T07:22:27.477Z,99.30
2022-07-28T07:24:57.596Z,99.40
2022-07-28T07:27:30.730Z,98.70
2022-07-28T07:30:00.007Z,98.40
2022-07-28T07:32:32.759Z,98.40
2022-07-28T07:35:03.138Z,97.90
2022-07-28T07:37:32.732Z,98.40
2022-07-28T07:40:01.602Z,99.20
2022-07-28T07:42:33.159Z,98.60
2022-07-28T07:45:02.184Z,98.40
2022-07-28T07:47:31.661Z,97.90
2022-07-28T07:50:04.287Z,98.80
2022-07-28T07:52:33.808Z,99.50
2022-07-28T07:55:02.581Z,99.80
2022-07-28T07:57:31.306Z,99.20
2022-07-28T08:00:01.257Z,97.90
2022-07-28T08:02:30.017Z,97.50
2022-07-28T08:04:58.918Z,97.50
2022-07-28T08:07:29.174Z,98.10
2022-07-28T08:09:58.158Z,98.00
2022-07-28T08:12:26.957Z,97.70
2022-07-28T08:14:56.451Z,98.20
2022-07-28T08:17:26.338Z,98.70
2022-07-28T08:19:55.658Z,99.10
2022-07-28T08:22:30.975Z,98.90
2022-07-28T08:25:04.370Z,98.10
2022-07-28T08:27:33.153Z,98.10
2022-07-28T08:30:06.532Z,97.40
2022-07-28T08:32:35.357Z,97.80
2022-07-28T08:35:31.923Z,98.20
2022-07-28T08:37:54.193Z,98.40
2022-07-28T08:40:27.618Z,97.60
2022-07-28T08:43:03.221Z,97.30
2022-07-28T08:45:37.122Z,97.70
2022-07-28T08:48:09.115Z,97.80
2022-07-28T08:50:42.508Z,97.90
2022-07-28T08:53:12.117Z,97.10
2022-07-28T08:55:42.732Z,97.40
2022-07-28T08:58:14.338Z,98.00
2022-07-28T09:00:43.641Z,97.70
2022-07-28T09:03:14.407Z,96.90
2022-07-28T09:05:44.791Z,97.30
2022-07-28T09:08:14.121Z,95.80
2022-07-28T09:10:44.337Z,95.80
2022-07-28T09:13:13.661Z,94.90
2022-07-28T09:15:46.693Z,95.20
2022-07-28T09:18:16.272Z,94.70
2022-07-28T09:20:48.369Z,95.00
2022-07-28T09:23:42.727Z,95.60
2022-07-28T09:26:15.874Z,96.90
2022-07-28T09:28:53.807Z,95.70
2022-07-28T09:31:23.970Z,94.00
2022-07-28T09:34:01.804Z,94.00
2022-07-28T09:36:39.096Z,94.30
2022-07-28T09:39:08.431Z,93.20
2022-07-28T09:41:50.207Z,93.60
2022-07-28T09:44:24.982Z,93.10
2022-07-28T09:46:53.949Z,92.70
2022-07-28T09:49:28.263Z,92.60
2022-07-28T09:52:06.140Z,93.30
2022-07-28T09:54:40.275Z,92.40
2022-07-28T09:57:13.806Z,91.70
2022-07-28T09:59:45.403Z,91.00
2022-07-28T10:02:26.512Z,91.30
2022-07-28T10:04:58.398Z,91.80
2022-07-28T10:07:29.559Z,92.40
2022-07-28T10:09:59.833Z,91.80
2022-07-28T10:12:32.068Z,93.60
2022-07-28T10:15:33.021Z,94.00
2022-07-28T10:18:02.026Z,92.00
2022-07-28T10:20:33.595Z,93.50
2022-07-28T10:23:05.951Z,94.00
2022-07-28T10:25:36.166Z,94.30
2022-07-28T10:28:09.770Z,93.50
2022-07-28T10:30:43.259Z,93.40
2022-07-28T10:33:20.732Z,93.10
2022-07-28T10:35:55.871Z,92.50
2022-07-28T10:38:30.117Z,92.80
2022-07-28T10:41:06.024Z,93.60
2022-07-28T10:43:42.794Z,92.90
2022-07-28T10:46:17.999Z,91.80
2022-07-28T10:48:50.136Z,92.90
2022-07-28T10:51:21.137Z,92.10
2022-07-28T10:53:59.205Z,91.90
2022-07-28T10:56:39.275Z,92.00
2022-07-28T10:59:32.291Z,92.40
2022-07-28T11:02:02.046Z,93.00
2022-07-28T11:05:04.234Z,93.30
2022-07-28T11:07:43.537Z,93.50
2022-07-28T11:10:21.628Z,92.90
2022-07-28T11:12:52.879Z,92.80
2022-07-28T11:15:36.852Z,91.00
2022-07-28T11:18:13.847Z,90.60
2022-07-28T11:21:10.104Z,89.60
2022-07-28T11:24:01.851Z,88.80
2022-07-28T11:26:41.512Z,87.30
2022-07-28T11:29:24.742Z,90.00
2022-07-28T11:32:11.832Z,90.10
2022-07-28T11:35:16.324Z,87.70
2022-07-28T11:38:12.556Z,88.90
2022-07-28T11:40:45.519Z,86.60
2022-07-28T11:43:40.743Z,84.90
2022-07-28T11:46:38.451Z,85.50
2022-07-28T11:49:28.250Z,85.40
2022-07-28T11:52:34.170Z,85.10
2022-07-28T11:55:06.522Z,85.60
2022-07-28T11:57:53.805Z,86.80
2022-07-28T12:00:26.389Z,87.50
2022-07-28T12:03:08.870Z,86.90
2022-07-28T12:05:42.044Z,87.50
2022-07-28T12:08:12.080Z,86.90
2022-07-28T12:10:54.430Z,83.40
2022-07-28T12:13:30.314Z,84.60
2022-07-28T12:16:00.302Z,86.20
2022-07-28T12:18:29.440Z,87.00
2022-07-28T12:21:05.066Z,83.50
2022-07-28T12:23:39.035Z,84.40
2022-07-28T12:26:29.704Z,83.70
2022-07-28T12:29:01.076Z,85.80
2022-07-28T12:31:33.369Z,83.90
2022-07-28T12:34:02.375Z,84.50
2022-07-28T12:36:32.568Z,86.20
2022-07-28T12:39:01.975Z,84.50
2022-07-28T12:41:34.684Z,86.00
2022-07-28T12:44:05.506Z,82.40
2022-07-28T12:46:35.042Z,83.90
2022-07-28T12:49:04.042Z,82.80
2022-07-28T12:51:39.237Z,81.70
2022-07-28T12:54:10.459Z,80.70
2022-07-28T12:56:49.103Z,78.20
2022-07-28T12:59:19.932Z,80.10
2022-07-28T13:01:53.618Z,80.50
2022-07-28T13:04:41.831Z,78.30
2022-07-28T13:07:15.085Z,79.60
2022-07-28T13:09:59.951Z,81.10
2022-07-28T13:12:31.399Z,80.30
2022-07-28T13:15:01.504Z,80.90
2022-07-28T13:17:49.222Z,81.60
2022-07-28T13:20:18.344Z,80.00
2022-07-28T13:22:48.591Z,79.70
2022-07-28T13:25:17.405Z,80.00
2022-07-28T13:27:48.538Z,79.10
2022-07-28T13:30:21.380Z,79.60
2022-07-28T13:32:51.375Z,79.00
2022-07-28T13:35:21.058Z,79.40
2022-07-28T13:37:51.582Z,81.60
2022-07-28T13:40:20.241Z,81.40
2022-07-28T13:42:52.961Z,81.10
2022-07-28T13:45:25.014Z,82.00
2022-07-28T13:47:58.692Z,81.60
2022-07-28T13:50:27.913Z,83.30
2022-07-28T13:52:58.056Z,82.50
2022-07-28T13:55:27.789Z,83.00
2022-07-28T13:57:56.771Z,82.90
2022-07-28T14:00:25.751Z,82.60
2022-07-28T14:02:54.838Z,81.60
2022-07-28T14:05:23.669Z,81.70
2022-07-28T14:07:52.880Z,81.80
2022-07-28T14:10:26.808Z,80.80
2022-07-28T14:12:56.522Z,80.70
2022-07-28T14:15:25.307Z,79.60
2022-07-28T14:17:54.154Z,77.10
2022-07-28T14:20:22.867Z,77.70
2022-07-28T14:22:53.296Z,76.80
2022-07-28T14:25:23.563Z,77.70
2022-07-28T14:27:52.888Z,80.50
2022-07-28T14:30:22.241Z,77.20
2022-07-28T14:32:51.277Z,78.70
2022-07-28T14:35:20.655Z,79.30
2022-07-28T14:38:49.665Z,77.60
2022-07-28T14:40:40.289Z,78.00
2022-07-28T14:43:09.545Z,78.40
2022-07-28T14:46:00.504Z,76.70
2022-07-28T14:48:27.940Z,79.10
2022-07-28T14:50:57.443Z,79.40
2022-07-28T14:53:28.109Z,80.00
2022-07-28T14:55:58.517Z,76.60
2022-07-28T14:58:27.320Z,76.60
2022-07-28T15:00:56.139Z,76.50
2022-07-28T15:03:27.055Z,79.80
2022-07-28T15:05:55.712Z,76.80
2022-07-28T15:08:28.840Z,74.90
2022-07-28T15:10:59.879Z,74.40
2022-07-28T15:13:28.766Z,73.80
2022-07-28T15:16:00.179Z,76.30
2022-07-28T15:18:29.411Z,76.30
2022-07-28T15:21:00.430Z,73.90
2022-07-28T15:23:29.196Z,78.50
2022-07-28T15:25:59.430Z,75.70
2022-07-28T15:28:29.042Z,75.60
2022-07-28T15:30:57.976Z,75.20
2022-07-28T15:33:26.931Z,75.10
2022-07-28T15:35:58.092Z,75.70
2022-07-28T15:38:29.575Z,76.50
2022-07-28T15:41:02.453Z,77.40
2022-07-28T15:43:33.263Z,77.00
2022-07-28T15:46:08.955Z,76.00
2022-07-28T15:48:38.232Z,80.00
2022-07-28T15:51:07.045Z,80.50
2022-07-28T15:53:36.197Z,76.50
2022-07-28T15:56:07.113Z,80.00
2022-07-28T15:58:35.942Z,78.90
2022-07-28T16:01:05.104Z,76.90
2022-07-28T16:03:34.313Z,79.40
2022-07-28T16:06:03.351Z,79.00
2022-07-28T16:08:32.426Z,78.80
2022-07-28T16:11:01.111Z,80.10
2022-07-28T16:13:37.139Z,82.80
2022-07-28T16:16:08.866Z,79.60
2022-07-28T16:18:38.771Z,79.00
2022-07-28T16:21:09.130Z,78.50
2022-07-28T16:23:38.066Z,79.20
2022-07-28T16:26:10.601Z,79.40
2022-07-28T16:28:47.897Z,78.70
2022-07-28T16:31:18.766Z,80.20
2022-07-28T16:33:49.478Z,79.20
2022-07-28T16:36:20.241Z,80.10
2022-07-28T16:38:51.874Z,83.30
2022-07-28T16:41:23.047Z,84.10
2022-07-28T16:44:15.688Z,83.30
2022-07-28T16:46:48.250Z,82.30
2022-07-28T16:49:18.353Z,79.60
2022-07-28T16:51:52.644Z,81.30
2022-07-28T16:54:30.352Z,81.80
2022-07-28T16:57:00.168Z,83.70
2022-07-28T16:59:37.041Z,83.30
2022-07-28T17:02:16.742Z,85.10
2022-07-28T17:04:50.555Z,82.40
2022-07-28T17:07:20.032Z,81.10
2022-07-28T17:09:48.760Z,80.30
2022-07-28T17:12:17.597Z,81.00
2022-07-28T17:14:47.724Z,81.10
2022-07-28T17:17:16.679Z,82.40
2022-07-28T17:19:47.016Z,83.30
2022-07-28T17:22:16.576Z,82.70
2022-07-28T17:24:45.391Z,82.80
2022-07-28T17:30:04.365Z,83.50
2022-07-28T17:32:33.197Z,84.10
2022-07-28T17:35:02.058Z,83.80
2022-07-28T17:37:31.603Z,84.10
2022-07-28T17:40:01.235Z,85.20
2022-07-28T17:42:34.359Z,85.80
2022-07-28T17:45:04.502Z,86.60
2022-07-28T17:47:36.109Z,87.80
2022-07-28T17:50:07.519Z,88.70
2022-07-28T17:52:36.300Z,89.40
2022-07-28T17:55:23.515Z,90.00
2022-07-28T17:57:52.993Z,90.30
2022-07-28T18:00:24.283Z,90.80
2022-07-28T18:02:53.456Z,91.50
2022-07-28T18:05:22.469Z,91.60
2022-07-28T18:07:53.686Z,92.20
2022-07-28T18:10:27.130Z,93.00
2022-07-28T18:12:56.192Z,93.80
2022-07-28T18:15:27.867Z,93.30
2022-07-28T18:18:00.091Z,93.40
2022-07-28T18:20:29.150Z,93.60
2022-07-28T18:22:58.804Z,94.10
2022-07-28T18:25:29.242Z,94.70
2022-07-28T18:27:58.680Z,95.10
2022-07-28T18:30:29.577Z,95.70
2022-07-28T18:32:58.242Z,96.00
2022-07-28T18:35:27.263Z,96.80
2022-07-28T18:37:56.020Z,96.90
2022-07-28T18:40:24.995Z,97.50
2022-07-28T18:42:54.532Z,98.20
2022-07-28T18:45:24.824Z,98.50
2022-07-28T18:47:58.972Z,99.20
2022-07-28T18:50:31.637Z,99.50
2022-07-28T18:53:01.460Z,99.80
2022-07-28T18:55:30.124Z,99.90
2022-07-28T18:57:58.926Z,99.90
2022-07-28T19:00:27.653Z,99.90
2022-07-28T19:02:58.091Z,99.90
2022-07-28T19:05:27.634Z,99.90
2022-07-28T19:08:06.185Z,99.90
2022-07-28T19:10:35.437Z,99.90
2022-07-28T19:13:04.650Z,99.90
2022-07-28T19:15:42.486Z,99.90
2022-07-28T19:18:12.890Z,99.90
2022-07-28T19:20:42.624Z,99.90
2022-07-28T19:23:11.262Z,99.90
2022-07-28T19:25:40.602Z,99.90
2022-07-28T19:28:09.951Z,99.90
2022-07-28T19:30:38.733Z,99.90
2022-07-28T19:33:07.646Z,99.90
2022-07-28T19:35:46.144Z,99.90
2022-07-28T19:38:17.498Z,99.90
2022-07-28T19:40:46.390Z,99.90
2022-07-28T19:43:15.120Z,99.90
2022-07-28T19:45:47.413Z,99.90
2022-07-28T19:48:16.236Z,99.90
2022-07-28T19:50:50.304Z,99.90
2022-07-28T19:53:20.542Z,99.90
2022-07-28T19:55:54.141Z,99.90
2022-07-28T19:58:22.918Z,99.90
2022-07-28T20:00:54.099Z,99.90
2022-07-28T20:04:02.669Z,99.90
2022-07-28T20:06:15.874Z,99.90
2022-07-28T20:08:44.771Z,99.90
2022-07-28T20:11:14.909Z,99.90
2022-07-28T20:13:43.779Z,99.90
2022-07-28T20:16:12.704Z,99.90
2022-07-28T20:18:41.594Z,99.90
2022-07-28T20:21:10.751Z,99.90
2022-07-28T20:23:41.206Z,99.90
2022-07-28T20:26:10.488Z,99.90
2022-07-28T20:28:39.527Z,99.90
2022-07-28T20:31:12.375Z,99.90
2022-07-28T20:33:43.814Z,99.90
2022-07-28T20:36:12.563Z,99.90
2022-07-28T20:38:42.965Z,99.90
2022-07-28T20:41:11.700Z,99.90
2022-07-28T20:43:40.451Z,99.90
2022-07-28T20:46:09.284Z,99.90
2022-07-28T20:48:38.983Z,99.90
2022-07-28T20:51:08.976Z,99.90
2022-07-28T20:53:37.642Z,99.90
2022-07-28T20:56:07.968Z,99.90
2022-07-28T20:58:36.840Z,99.90
2022-07-28T21:01:05.827Z,99.90
2022-07-28T21:03:34.584Z,99.90
2022-07-28T21:06:03.239Z,99.90
2022-07-28T21:08:32.762Z,99.90
2022-07-28T21:11:01.731Z,99.90
2022-07-28T21:13:32.032Z,99.90
2022-07-28T21:16:01.022Z,99.90
2022-07-28T21:18:29.944Z,99.90
2022-07-28T21:20:59.723Z,99.90
2022-07-28T21:23:28.408Z,99.90
2022-07-28T21:25:57.191Z,99.90
2022-07-28T21:28:43.157Z,99.90
2022-07-28T21:31:13.909Z,99.90
2022-07-28T21:33:42.917Z,99.90
2022-07-28T21:36:11.764Z,99.90
2022-07-28T21:38:41.998Z,99.90
2022-07-28T21:41:10.962Z,99.90
2022-07-28T21:43:40.060Z,99.90
2022-07-28T21:46:12.079Z,99.90
2022-07-28T21:48:42.621Z,99.90
2022-07-28T21:51:19.402Z,99.90
2022-07-28T21:53:50.950Z,99.90
2022-07-28T21:56:20.027Z,99.90
2022-07-28T21:58:48.822Z,99.90
2022-07-28T22:01:18.206Z,99.90
2022-07-28T22:03:48.569Z,99.90
2022-07-28T22:06:17.460Z,99.90
2022-07-28T22:08:46.257Z,99.90
2022-07-28T22:11:15.492Z,99.90
2022-07-28T22:13:44.341Z,99.90
2022-07-28T22:16:13.287Z,99.90
2022-07-28T22:18:42.004Z,99.90
2022-07-28T22:21:12.214Z,99.90
2022-07-28T22:23:42.553Z,99.90
2022-07-28T22:26:11.211Z,99.90
2022-07-28T22:28:39.875Z,99.90
2022-07-28T22:31:10.495Z,99.90
2022-07-28T22:33:40.153Z,99.90
2022-07-28T22:36:10.505Z,99.90
2022-07-28T22:38:40.813Z,99.90
2022-07-28T22:41:09.794Z,99.90
2022-07-28T22:43:38.962Z,99.90
2022-07-28T22:46:07.680Z,99.90
2022-07-28T22:48:36.474Z,99.90
2022-07-28T22:51:05.346Z,99.90
2022-07-28T22:53:33.988Z,99.90
2022-07-28T22:56:57.637Z,99.90
2022-07-28T22:59:27.841Z,99.90
2022-07-28T23:02:01.046Z,99.90
2022-07-28T23:04:29.757Z,99.90
2022-07-28T23:06:58.846Z,99.90
2022-07-28T23:09:29.281Z,99.90
2022-07-28T23:11:58.364Z,99.90
2022-07-28T23:14:28.661Z,99.90
2022-07-28T23:16:58.100Z,99.90
2022-07-28T23:19:26.938Z,99.90
2022-07-28T23:21:55.882Z,99.90
2022-07-28T23:24:25.499Z,99.90
2022-07-28T23:26:54.309Z,99.90
2022-07-28T23:29:23.228Z,99.90
2022-07-28T23:31:54.904Z,99.90
2022-07-28T23:34:23.604Z,99.90
2022-07-28T23:36:52.399Z,99.90
2022-07-28T23:39:21.102Z,99.90
2022-07-28T23:41:49.909Z,99.90
2022-07-28T23:44:19.970Z,99.90
2022-07-28T23:46:48.874Z,99.90
2022-07-28T23:49:19.388Z,99.90
2022-07-28T23:51:48.948Z,99.90
2022-07-28T23:54:19.720Z,99.90
2022-07-28T23:56:52.583Z,99.90
2022-07-28T23:59:21.241Z,99.90
